Time;durP1;ratioP1;P1;durP2;ratioP2;P2;SDS_P1;SDS_P2;PMS_P1;PMS_P2;Temp;Humidity;BMP_temperature;BMP_pressure;BME280_temperature;BME280_humidity;BME280_pressure;Samples;Min_cycle;Max_cycle;Signal;HPM_P1;HPM_P2
2022/01/15 00:00:30;;;;;;;0.00;0.00;;;;;;;8.55;49.45;98829.53;5111816;28;20053;-74
2022/01/15 00:02:56;;;;;;;0.75;0.75;;;;;;;8.61;49.79;98822.34;5110423;28;20023;-74
2022/01/15 00:05:22;;;;;;;0.00;0.00;;;;;;;8.60;50.20;98826.84;5104947;28;20078;-74
2022/01/15 00:07:48;;;;;;;0.00;0.00;;;;;;;8.56;49.90;98827.69;5096293;28;20031;-74
2022/01/15 00:10:20;;;;;;;0.00;0.00;;;;;;;8.53;49.72;98828.19;5111608;28;20035;-74
2022/01/15 00:12:45;;;;;;;0.00;0.00;;;;;;;8.55;49.87;98836.72;5111763;28;20097;-73
2022/01/15 00:15:17;;;;;;;0.00;0.00;;;;;;;8.41;50.28;98820.44;5111296;28;20467;-73
2022/01/15 00:17:55;;;;;;;0.00;0.00;;;;;;;8.58;50.57;98866.31;5111642;28;20043;-73
2022/01/15 00:20:20;;;;;;;0.00;0.00;;;;;;;8.45;50.53;98870.28;5109773;28;20028;-73
2022/01/15 00:22:48;;;;;;;0.10;0.10;;;;;;;8.49;50.75;98876.72;5109843;28;20043;-73
2022/01/15 00:25:13;;;;;;;0.70;0.70;;;;;;;8.40;51.35;98866.78;5089647;28;20114;-73
2022/01/15 00:27:40;;;;;;;0.03;0.03;;;;;;;8.49;51.57;98897.22;5091145;28;20055;-73
2022/01/15 00:30:06;;;;;;;0.00;0.00;;;;;;;8.49;51.06;98907.88;5090926;28;20035;-72
2022/01/15 00:32:31;;;;;;;0.00;0.00;;;;;;;8.48;51.45;98911.59;5090821;28;20488;-73
2022/01/15 00:34:57;;;;;;;0.00;0.00;;;;;;;8.44;51.74;98907.84;5091123;28;20061;-73
2022/01/15 00:37:23;;;;;;;0.00;0.00;;;;;;;8.33;52.05;98888.38;5089463;28;20036;-73
2022/01/15 00:39:48;;;;;;;0.00;0.00;;;;;;;8.45;51.91;98926.25;5091021;28;20065;-72
2022/01/15 00:42:14;;;;;;;0.00;0.00;;;;;;;8.46;52.14;98940.38;5097653;28;20055;-72
2022/01/15 00:44:41;;;;;;;0.00;0.00;;;;;;;8.38;51.87;98930.22;5091074;28;20027;-73
2022/01/15 00:47:07;;;;;;;0.00;0.00;;;;;;;8.31;52.58;98923.28;5090740;28;20028;-73
2022/01/15 00:49:32;;;;;;;0.10;0.10;;;;;;;8.42;52.26;98948.09;5106996;28;20042;-73
2022/01/15 00:51:57;;;;;;;0.00;0.00;;;;;;;8.40;52.54;98950.22;5113072;28;20039;-73
2022/01/15 00:54:23;;;;;;;0.00;0.00;;;;;;;8.31;52.47;98955.28;5115042;28;20064;-73
2022/01/15 00:56:48;;;;;;;0.00;0.00;;;;;;;8.27;53.46;98934.75;5103501;28;20110;-73
2022/01/15 00:59:14;;;;;;;0.00;0.00;;;;;;;8.25;52.88;98943.00;5102721;28;20491;-72
2022/01/15 01:01:40;;;;;;;0.00;0.00;;;;;;;8.21;53.21;98943.78;5107213;28;20411;-72
2022/01/15 01:04:05;;;;;;;0.00;0.00;;;;;;;8.18;53.19;98945.13;5102456;28;20036;-73
2022/01/15 01:06:31;;;;;;;0.00;0.00;;;;;;;8.17;53.94;98946.16;5113672;28;20587;-73
2022/01/15 01:08:56;;;;;;;0.00;0.00;;;;;;;8.23;54.10;98962.97;5115313;28;20063;-74
2022/01/15 01:24:37;;;;;;;0.00;0.00;;;;;;;7.96;54.92;98970.06;5115038;28;20024;-74
2022/01/15 01:27:13;;;;;;;0.00;0.00;;;;;;;7.95;54.77;98967.69;5112918;28;20042;-74
2022/01/15 01:30:04;;;;;;;0.00;0.00;;;;;;;7.98;55.54;98959.97;5113637;28;20393;-75
2022/01/15 01:32:47;;;;;;;0.00;0.00;;;;;;;7.89;55.37;98958.84;5113384;28;20475;-75
2022/01/15 01:35:18;;;;;;;0.00;0.00;;;;;;;7.95;55.53;98957.81;5113040;28;20048;-73
2022/01/15 01:37:49;;;;;;;0.85;0.85;;;;;;;7.76;55.31;98936.16;5114371;28;20421;-72
2022/01/15 01:42:52;;;;;;;0.00;0.00;;;;;;;7.80;56.06;98933.78;5114645;28;20059;-74
2022/01/15 01:45:18;;;;;;;0.00;0.00;;;;;;;7.80;56.20;98953.22;5113003;28;20031;-72
2022/01/15 01:47:43;;;;;;;5.18;2.20;;;;;;;7.84;56.40;98956.19;5112959;28;20088;-72
2022/01/15 01:50:18;;;;;;;0.13;0.13;;;;;;;7.84;56.13;98961.50;5113944;28;20031;-74
2022/01/15 01:52:47;;;;;;;0.00;0.00;;;;;;;7.86;56.45;98956.72;5111263;28;20054;-74
2022/01/15 01:55:14;;;;;;;0.10;0.10;;;;;;;7.88;56.69;98962.56;5096419;28;20093;-73
2022/01/15 01:57:42;;;;;;;0.25;0.25;;;;;;;7.76;56.50;98951.34;5092726;28;20024;-75
2022/01/15 02:00:11;;;;;;;0.00;0.00;;;;;;;7.93;56.30;98961.78;5093641;28;20072;-74
2022/01/15 02:02:37;;;;;;;0.15;0.15;;;;;;;7.91;56.44;98962.06;5092191;28;20552;-74
2022/01/15 02:05:03;;;;;;;0.00;0.00;;;;;;;7.96;56.31;98977.28;5093994;28;20074;-73
2022/01/15 02:07:29;;;;;;;0.00;0.00;;;;;;;7.96;56.31;98977.28;5092529;28;20380;-75
2022/01/15 02:09:55;;;;;;;0.00;0.00;;;;;;;7.90;56.69;98968.44;5092784;28;20032;-75
2022/01/15 02:12:21;;;;;;;0.00;0.00;;;;;;;8.00;56.09;98997.78;5092214;28;20024;-74
2022/01/15 02:14:47;;;;;;;0.00;0.00;;;;;;;7.96;56.21;98991.38;5093339;28;20499;-74
2022/01/15 02:17:17;;;;;;;0.00;0.00;;;;;;;7.99;56.48;99001.50;5108857;28;20502;-74
2022/01/15 02:20:08;;;;;;;0.47;0.47;;;;;;;7.96;56.72;98998.56;5112649;28;20117;-74
2022/01/15 02:25:14;;;;;;;2.05;1.75;;;;;;;7.82;57.50;98987.56;5093220;28;20042;-74
2022/01/15 02:27:40;;;;;;;0.00;0.00;;;;;;;7.81;57.18;99010.75;5112239;27;20401;-73
2022/01/15 02:30:06;;;;;;;0.22;0.22;;;;;;;7.96;57.22;99006.56;5133989;27;20478;-73
2022/01/15 02:32:32;;;;;;;0.00;0.00;;;;;;;7.90;57.45;99002.25;5113944;27;20038;-73
2022/01/15 02:34:59;;;;;;;0.35;0.35;;;;;;;7.74;57.67;98991.53;5113629;27;20098;-73
2022/01/15 02:37:24;;;;;;;0.00;0.00;;;;;;;7.95;57.54;99021.72;5113329;28;20029;-74
2022/01/15 02:39:50;;;;;;;0.00;0.00;;;;;;;7.69;57.85;99002.16;5113500;28;20028;-74
2022/01/15 02:42:15;;;;;;;0.00;0.00;;;;;;;7.67;58.26;98996.28;5113284;28;20024;-76
2022/01/15 02:44:43;;;;;;;0.00;0.00;;;;;;;7.73;58.06;99024.53;5112066;28;20039;-75
2022/01/15 02:49:35;;;;;;;0.00;0.00;;;;;;;7.40;58.69;98999.84;5113395;28;20040;-74
2022/01/15 02:52:00;;;;;;;0.00;0.00;;;;;;;7.55;58.91;99022.31;5111435;28;20500;-75
2022/01/15 02:54:26;;;;;;;0.00;0.00;;;;;;;7.51;58.79;99011.38;5110351;28;20061;-74
2022/01/15 02:56:52;;;;;;;0.00;0.00;;;;;;;7.35;59.34;98997.94;5099874;28;20475;-74
2022/01/15 02:59:21;;;;;;;0.45;0.45;;;;;;;7.36;59.56;99014.69;5092377;28;20082;-73
2022/01/15 03:01:49;;;;;;;0.45;0.45;;;;;;;7.37;59.54;99013.66;5093506;28;20468;-72
2022/01/15 03:04:15;;;;;;;0.00;0.00;;;;;;;7.48;59.31;99036.63;5112160;28;20034;-74
2022/01/15 03:06:40;;;;;;;0.00;0.00;;;;;;;7.35;59.74;99029.09;5112410;28;20058;-74
2022/01/15 03:09:06;;;;;;;0.00;0.00;;;;;;;7.48;59.62;99041.97;5112746;28;20478;-72
2022/01/15 03:11:31;;;;;;;0.00;0.00;;;;;;;7.50;59.82;99053.13;5112048;28;20035;-73
2022/01/15 03:13:56;;;;;;;0.00;0.00;;;;;;;7.52;59.26;99040.38;5109867;28;20043;-73
2022/01/15 03:16:22;;;;;;;0.75;0.75;;;;;;;7.58;59.45;99069.69;5110299;28;20494;-75
2022/01/15 03:18:49;;;;;;;0.00;0.00;;;;;;;7.36;59.89;99057.28;5099713;28;20028;-74
2022/01/15 03:21:15;;;;;;;0.00;0.00;;;;;;;7.34;59.46;99065.50;5106682;28;20052;-73
2022/01/15 03:23:41;;;;;;;0.10;0.10;;;;;;;7.26;59.75;99062.53;5110545;28;20084;-74
2022/01/15 03:26:13;;;;;;;0.00;0.00;;;;;;;7.17;59.76;99073.63;5095228;28;20032;-74
2022/01/15 03:28:39;;;;;;;0.00;0.00;;;;;;;7.04;60.16;99074.84;5090769;28;20419;-74
2022/01/15 03:31:05;;;;;;;0.00;0.00;;;;;;;6.99;60.46;99071.31;5094919;28;20086;-73
2022/01/15 03:33:30;;;;;;;0.00;0.00;;;;;;;6.96;60.45;99093.91;5107023;28;20490;-73
2022/01/15 03:35:56;;;;;;;0.00;0.00;;;;;;;6.83;61.18;99096.97;5107394;28;20038;-72
2022/01/15 03:38:21;;;;;;;0.00;0.00;;;;;;;6.71;61.55;99092.59;5108564;28;20027;-73
2022/01/15 03:40:47;;;;;;;0.00;0.00;;;;;;;6.76;61.21;99107.78;5096978;28;20027;-72
2022/01/15 03:43:13;;;;;;;0.00;0.00;;;;;;;6.63;61.11;99095.69;5112065;28;20024;-72
2022/01/15 03:45:38;;;;;;;0.15;0.15;;;;;;;6.45;62.39;99093.34;5111607;28;20038;-72
2022/01/15 03:48:04;;;;;;;0.00;0.00;;;;;;;6.48;61.32;99114.91;5111562;28;20036;-72
2022/01/15 03:50:29;;;;;;;0.20;0.20;;;;;;;6.41;61.65;99130.22;5100569;28;20036;-72
2022/01/15 03:52:56;;;;;;;0.00;0.00;;;;;;;6.39;62.23;99134.97;5091624;28;20044;-72
2022/01/15 03:55:22;;;;;;;0.00;0.00;;;;;;;6.25;62.82;99151.25;5091731;28;20515;-73
2022/01/15 03:57:48;;;;;;;0.00;0.00;;;;;;;6.23;63.01;99156.00;5100472;28;20055;-73
2022/01/15 04:00:19;;;;;;;1.35;0.85;;;;;;;6.04;62.79;99139.56;5108701;28;20024;-73
2022/01/15 04:02:46;;;;;;;0.00;0.00;;;;;;;6.05;63.59;99151.78;5097119;28;20031;-72
2022/01/15 04:05:12;;;;;;;5.13;1.77;;;;;;;6.03;63.60;99164.50;5107118;28;20028;-72
2022/01/15 04:07:38;;;;;;;0.00;0.00;;;;;;;6.04;63.82;99165.28;5090975;28;20117;-73
2022/01/15 04:10:09;;;;;;;0.00;0.00;;;;;;;6.00;63.92;99169.50;5091193;28;20035;-73
2022/01/15 04:12:34;;;;;;;0.00;0.00;;;;;;;6.05;63.96;99177.53;5099362;28;20581;-73
2022/01/15 04:15:00;;;;;;;0.68;0.68;;;;;;;6.07;64.42;99178.09;5111514;28;20024;-73
2022/01/15 04:17:26;;;;;;;0.52;0.52;;;;;;;6.19;64.23;99200.03;5104638;27;20024;-74
2022/01/15 04:19:52;;;;;;;0.00;0.00;;;;;;;6.25;63.91;99201.72;5091397;28;20050;-74
2022/01/15 04:22:17;;;;;;;0.05;0.05;;;;;;;6.19;64.10;99193.91;5089752;28;20020;-75
2022/01/15 04:24:42;;;;;;;0.05;0.05;;;;;;;6.34;63.83;99211.94;5090113;28;20028;-76
2022/01/15 04:27:09;;;;;;;0.00;0.00;;;;;;;6.30;64.39;99200.19;5089139;28;20028;-76
2022/01/15 04:29:34;;;;;;;0.20;0.20;;;;;;;6.41;63.89;99210.72;5100713;28;20895;-76
2022/01/15 04:32:00;;;;;;;0.20;0.20;;;;;;;6.42;62.91;99208.88;5110271;28;20028;-74
2022/01/15 04:34:27;;;;;;;0.00;0.00;;;;;;;6.45;63.32;99219.00;5110054;28;20020;-74
2022/01/15 04:37:20;;;;;;;0.57;0.57;;;;;;;6.46;63.74;99233.06;5111130;28;20164;-74
2022/01/15 04:39:42;;;;;;;0.28;0.28;;;;;;;6.45;64.19;99218.22;5110281;28;20039;-72
2022/01/15 04:42:08;;;;;;;0.00;0.00;;;;;;;6.52;63.87;99222.28;5111470;28;20028;-72
2022/01/15 04:44:33;;;;;;;0.00;0.00;;;;;;;6.51;63.46;99212.72;5111223;28;20028;-73
2022/01/15 04:46:59;;;;;;;0.00;0.00;;;;;;;6.66;63.61;99217.41;5111437;28;20024;-72
2022/01/15 04:49:25;;;;;;;0.00;0.00;;;;;;;6.70;63.54;99244.31;5109835;28;20462;-73
2022/01/15 04:51:50;;;;;;;0.10;0.10;;;;;;;6.75;63.16;99241.75;5109901;28;20047;-75
2022/01/15 04:54:16;;;;;;;0.00;0.00;;;;;;;6.73;63.44;99241.19;5111566;28;20031;-73
2022/01/15 04:56:41;;;;;;;0.00;0.00;;;;;;;6.78;64.00;99251.88;5110951;28;20475;-74
2022/01/15 04:59:06;;;;;;;0.30;0.30;;;;;;;6.82;63.00;99260.16;5091613;28;20032;-74
2022/01/15 05:01:32;;;;;;;0.15;0.15;;;;;;;6.82;63.44;99265.47;5089482;28;20599;-73
2022/01/15 05:03:57;;;;;;;0.73;0.73;;;;;;;6.81;63.29;99256.72;5090846;28;20047;-73
2022/01/15 05:06:23;;;;;;;0.10;0.10;;;;;;;6.86;62.76;99255.94;5104022;28;20027;-73
2022/01/15 05:08:52;;;;;;;0.30;0.30;;;;;;;6.96;62.42;99268.59;5110914;28;20485;-73
2022/01/15 05:11:30;;;;;;;0.32;0.32;;;;;;;6.93;62.15;99267.22;5102860;28;20032;-75
2022/01/15 05:13:55;;;;;;;0.03;0.03;;;;;;;7.01;61.55;99268.66;5103963;28;20059;-72
2022/01/15 05:16:21;;;;;;;0.00;0.00;;;;;;;7.09;62.11;99289.47;5099945;28;20071;-74
2022/01/15 05:18:46;;;;;;;0.00;0.00;;;;;;;7.19;61.10;99286.97;5120186;28;20031;-74
2022/01/15 05:21:12;;;;;;;0.47;0.47;;;;;;;7.14;60.68;99286.09;5128609;28;20047;-74
2022/01/15 05:23:37;;;;;;;0.00;0.00;;;;;;;7.12;61.47;99307.63;5110623;28;20041;-72
2022/01/15 05:26:03;;;;;;;0.30;0.30;;;;;;;7.06;61.67;99292.66;5110030;28;20031;-74
2022/01/15 05:28:29;;;;;;;0.47;0.47;;;;;;;7.21;60.99;99297.34;5108634;28;20444;-73
2022/01/15 05:30:54;;;;;;;0.00;0.00;;;;;;;7.19;60.48;99297.59;5098229;28;20024;-72
2022/01/15 05:33:20;;;;;;;0.00;0.00;;;;;;;7.11;60.42;99302.56;5090687;28;20039;-71
2022/01/15 05:35:45;;;;;;;0.00;0.00;;;;;;;6.98;60.83;99301.88;5099058;28;20054;-72
2022/01/15 05:38:10;;;;;;;0.00;0.00;;;;;;;7.12;61.01;99318.25;5109050;28;20020;-72
2022/01/15 05:40:37;;;;;;;0.00;0.00;;;;;;;7.08;60.67;99311.84;5108924;28;20023;-71
2022/01/15 05:43:03;;;;;;;0.65;0.65;;;;;;;7.10;60.62;99320.34;5105346;28;20522;-71
2022/01/15 05:45:29;;;;;;;0.00;0.00;;;;;;;7.14;60.32;99326.81;5114394;28;20024;-71
2022/01/15 05:47:55;;;;;;;0.00;0.00;;;;;;;7.19;60.19;99323.41;5120956;27;20034;-73
2022/01/15 05:50:21;;;;;;;0.65;0.65;;;;;;;7.15;60.51;99339.06;5097727;28;20402;-72
2022/01/15 05:52:46;;;;;;;0.08;0.08;;;;;;;7.18;60.24;99332.44;5102237;28;20047;-72
2022/01/15 05:55:12;;;;;;;0.00;0.00;;;;;;;7.31;60.18;99349.88;5109764;28;20606;-72
2022/01/15 05:57:37;;;;;;;0.00;0.00;;;;;;;7.26;59.84;99342.63;5093556;28;20120;-72
2022/01/15 06:00:06;;;;;;;0.95;0.85;;;;;;;7.31;60.12;99353.34;5098074;28;20048;-72
2022/01/15 06:02:31;;;;;;;0.00;0.00;;;;;;;7.26;59.70;99328.53;5134301;27;20028;-72
2022/01/15 06:04:57;;;;;;;0.00;0.00;;;;;;;7.42;59.57;99358.78;5127062;27;20024;-72
2022/01/15 06:07:22;;;;;;;0.00;0.00;;;;;;;7.41;59.75;99358.00;5113920;28;20039;-72
2022/01/15 06:09:48;;;;;;;0.00;0.00;;;;;;;7.41;60.09;99358.00;5114117;28;20059;-72
2022/01/15 06:12:13;;;;;;;0.00;0.00;;;;;;;7.46;60.00;99358.06;5112696;28;20130;-72
2022/01/15 06:14:38;;;;;;;0.00;0.00;;;;;;;7.46;59.79;99370.56;5104379;28;20020;-73
2022/01/15 06:17:04;;;;;;;0.00;0.00;;;;;;;7.46;59.68;99375.91;5102637;28;20050;-75
2022/01/15 06:19:29;;;;;;;0.00;0.00;;;;;;;7.61;59.19;99375.28;5112359;28;20085;-74
2022/01/15 06:21:56;;;;;;;0.00;0.00;;;;;;;7.62;59.70;99380.34;5113621;28;20450;-73
2022/01/15 06:24:22;;;;;;;0.00;0.00;;;;;;;7.53;60.22;99379.97;5127290;27;20406;-72
2022/01/15 06:26:48;;;;;;;0.00;0.00;;;;;;;7.48;60.53;99371.13;5129042;27;20023;-74
2022/01/15 06:29:13;;;;;;;0.00;0.00;;;;;;;7.44;60.13;99375.31;5112267;28;20089;-74
2022/01/15 06:31:39;;;;;;;0.00;0.00;;;;;;;7.40;60.52;99377.69;5112076;28;20034;-74
2022/01/15 06:34:04;;;;;;;0.00;0.00;;;;;;;7.40;61.00;99382.19;5113291;28;20032;-73
2022/01/15 06:36:30;;;;;;;0.20;0.20;;;;;;;7.36;60.85;99384.53;5112084;28;20023;-73
2022/01/15 06:38:55;;;;;;;0.00;0.00;;;;;;;7.36;60.94;99387.19;5113580;28;20035;-73
2022/01/15 06:41:21;;;;;;;0.00;0.00;;;;;;;7.34;61.03;99397.28;5112176;28;20110;-72
2022/01/15 06:43:46;;;;;;;0.00;0.00;;;;;;;7.37;61.07;99410.09;5113557;28;20034;-73
2022/01/15 06:46:12;;;;;;;0.00;0.00;;;;;;;7.25;60.39;99404.06;5112012;28;20514;-74
2022/01/15 06:48:37;;;;;;;0.00;0.00;;;;;;;7.26;60.77;99421.66;5112211;28;20111;-73
2022/01/15 06:51:03;;;;;;;0.00;0.00;;;;;;;7.18;60.79;99402.38;5111639;28;20467;-73
2022/01/15 06:53:29;;;;;;;0.00;0.00;;;;;;;7.26;61.26;99409.13;5112992;28;20048;-74
2022/01/15 06:55:55;;;;;;;0.00;0.00;;;;;;;7.27;60.48;99416.06;5112605;28;20038;-72
2022/01/15 06:58:22;;;;;;;0.00;0.00;;;;;;;7.21;61.27;99425.03;5112949;28;20024;-72
2022/01/15 07:00:48;;;;;;;0.00;0.00;;;;;;;7.14;61.30;99414.56;5109672;28;20069;-73
2022/01/15 07:03:14;;;;;;;0.00;0.00;;;;;;;7.00;61.00;99398.13;5102813;28;20120;-72
2022/01/15 07:05:39;;;;;;;0.00;0.00;;;;;;;7.25;60.48;99422.69;5106664;28;20115;-72
2022/01/15 07:08:05;;;;;;;0.00;0.00;;;;;;;7.34;60.92;99421.22;5112675;28;20494;-72
2022/01/15 07:10:31;;;;;;;0.00;0.00;;;;;;;7.36;60.92;99424.44;5112316;28;20078;-73
2022/01/15 07:12:56;;;;;;;0.00;0.00;;;;;;;7.42;60.40;99427.97;5103031;28;20049;-74
2022/01/15 07:15:22;;;;;;;0.00;0.00;;;;;;;7.31;60.82;99421.72;5105262;27;20050;-73
2022/01/15 07:17:48;;;;;;;0.00;0.00;;;;;;;7.30;61.02;99433.41;5116731;27;20422;-72
2022/01/15 07:20:16;;;;;;;0.00;0.00;;;;;;;7.42;60.58;99447.44;5122095;27;20034;-74
2022/01/15 07:22:42;;;;;;;0.00;0.00;;;;;;;7.31;60.45;99429.69;5133041;27;20031;-73
2022/01/15 07:25:09;;;;;;;0.00;0.00;;;;;;;7.41;60.53;99445.81;5132805;27;20042;-72
2022/01/15 07:27:35;;;;;;;0.00;0.00;;;;;;;7.42;60.85;99463.41;5132809;27;20030;-72
2022/01/15 07:30:02;;;;;;;0.00;0.00;;;;;;;7.36;60.17;99462.50;5120426;27;20053;-73
2022/01/15 07:32:28;;;;;;;0.00;0.00;;;;;;;7.46;60.50;99477.03;5107539;27;20538;-74
2022/01/15 07:34:53;;;;;;;0.00;0.00;;;;;;;7.40;60.88;99467.31;5099057;28;20102;-73
2022/01/15 07:37:19;;;;;;;1.85;1.45;;;;;;;7.53;60.63;99488.28;5112072;28;20027;-72
2022/01/15 07:39:44;;;;;;;0.00;0.00;;;;;;;7.46;61.09;99480.47;5111849;28;20104;-73
2022/01/15 07:42:10;;;;;;;0.00;0.00;;;;;;;7.57;60.44;99489.41;5094363;28;20100;-72
2022/01/15 07:44:36;;;;;;;0.00;0.00;;;;;;;7.55;60.49;99488.03;5111710;28;20032;-72
2022/01/15 07:47:02;;;;;;;0.00;0.00;;;;;;;7.36;60.71;99478.47;5111945;28;20050;-74
2022/01/15 07:49:28;;;;;;;0.00;0.00;;;;;;;7.58;60.72;99500.84;5106004;28;20427;-77
2022/01/15 07:51:53;;;;;;;0.00;0.00;;;;;;;7.57;60.77;99513.38;5091107;28;20127;-75
2022/01/15 07:54:18;;;;;;;0.65;0.65;;;;;;;7.57;60.74;99509.88;5090406;28;20020;-73
2022/01/15 07:56:44;;;;;;;0.00;0.00;;;;;;;7.61;60.31;99517.13;5091137;28;20032;-70
2022/01/15 07:59:09;;;;;;;0.00;0.00;;;;;;;7.65;60.53;99517.47;5111004;28;20019;-70
2022/01/15 08:01:35;;;;;;;0.00;0.00;;;;;;;7.52;60.73;99503.44;5111583;28;20024;-70
2022/01/15 08:04:03;;;;;;;0.00;0.00;;;;;;;7.57;61.71;99516.03;5110241;28;20032;-73
2022/01/15 08:06:28;;;;;;;0.00;0.00;;;;;;;7.55;61.65;99514.66;5111807;27;20461;-77
2022/01/15 08:08:54;;;;;;;0.00;0.00;;;;;;;7.58;61.75;99535.44;5106344;28;20028;-79
2022/01/15 08:11:20;;;;;;;0.10;0.10;;;;;;;7.57;61.92;99532.00;5121557;27;20024;-77
2022/01/15 08:13:45;;;;;;;0.00;0.00;;;;;;;7.55;61.92;99531.44;5123473;27;20059;-77
2022/01/15 08:16:11;;;;;;;0.00;0.00;;;;;;;7.57;61.55;99539.16;5117715;27;20028;-79
2022/01/15 08:18:37;;;;;;;0.00;0.00;;;;;;;7.56;61.86;99537.56;5109977;28;20113;-75
2022/01/15 08:21:05;;;;;;;0.00;0.00;;;;;;;7.50;61.66;99547.31;5110249;28;20475;-80
2022/01/15 08:23:30;;;;;;;0.00;0.00;;;;;;;7.42;61.32;99537.91;5111636;28;20540;-76
2022/01/15 08:25:56;;;;;;;0.00;0.00;;;;;;;7.42;61.91;99540.56;5111810;27;21407;-77
2022/01/15 08:28:23;;;;;;;0.00;0.00;;;;;;;7.54;65.21;99545.78;5101096;28;20142;-78
2022/01/15 08:30:49;;;;;;;0.00;0.00;;;;;;;7.56;63.02;99548.22;5106851;27;20038;-77
2022/01/15 08:33:14;;;;;;;0.00;0.00;;;;;;;7.07;62.62;99562.88;5113914;27;20115;-76
2022/01/15 08:35:40;;;;;;;0.00;0.00;;;;;;;6.59;64.83;99551.63;5110127;28;20475;-76
2022/01/15 08:38:05;;;;;;;0.00;0.00;;;;;;;6.51;65.76;99563.44;5107999;28;20015;-76
2022/01/15 08:40:32;;;;;;;0.00;0.00;;;;;;;6.51;66.07;99558.13;5115059;28;20038;-76
2022/01/15 08:42:58;;;;;;;0.00;0.00;;;;;;;6.48;66.44;99558.63;5115839;28;20034;-76
2022/01/15 08:45:24;;;;;;;0.00;0.00;;;;;;;6.49;66.98;99564.72;5114353;28;20115;-76
2022/01/15 08:47:49;;;;;;;0.00;0.00;;;;;;;6.47;67.04;99559.66;5109931;28;20024;-74
2022/01/15 08:50:17;;;;;;;0.00;0.00;;;;;;;6.50;67.30;99575.13;5107834;28;20031;-80
2022/01/15 08:52:43;;;;;;;0.00;0.00;;;;;;;6.38;67.57;99545.94;5109382;28;20055;-74
2022/01/15 08:55:09;;;;;;;0.05;0.05;;;;;;;6.47;67.15;99569.47;5096185;28;20036;-75
2022/01/15 08:57:35;;;;;;;0.00;0.00;;;;;;;6.50;67.00;99563.69;5089353;28;20536;-76
2022/01/15 09:00:03;;;;;;;0.00;0.00;;;;;;;6.53;67.18;99565.84;5090488;28;20111;-76
2022/01/15 09:02:28;;;;;;;0.00;0.00;;;;;;;6.59;67.04;99569.44;5104234;28;20035;-78
2022/01/15 09:04:54;;;;;;;0.00;0.00;;;;;;;6.62;66.65;99574.28;5089821;28;20035;-78
2022/01/15 09:07:19;;;;;;;0.00;0.00;;;;;;;6.66;66.55;99575.41;5089867;28;20119;-76
2022/01/15 09:09:45;;;;;;;0.00;0.00;;;;;;;6.72;67.18;99577.91;5093499;28;20028;-75
2022/01/15 09:12:11;;;;;;;0.00;0.00;;;;;;;6.81;66.77;99589.00;5093830;28;20035;-74
2022/01/15 09:14:38;;;;;;;0.00;0.00;;;;;;;6.83;66.66;99584.25;5106810;27;20032;-76
2022/01/15 09:17:03;;;;;;;0.00;0.00;;;;;;;6.89;65.99;99580.63;5106635;28;20039;-75
2022/01/15 09:19:29;;;;;;;0.00;0.00;;;;;;;6.94;66.16;99582.56;5105530;28;20046;-90
2022/01/15 09:21:54;;;;;;;0.30;0.30;;;;;;;6.95;66.39;99576.22;5124996;27;20398;-80
2022/01/15 09:24:20;;;;;;;0.52;0.52;;;;;;;6.99;66.22;99579.22;5112459;28;20035;-77
2022/01/15 09:32:13;;;;;;;0.00;0.00;;;;;;;7.02;66.39;99581.41;5085731;28;20074;-78
2022/01/15 09:34:39;;;;;;;0.45;0.45;;;;;;;6.94;66.68;99558.66;5106485;28;20036;-75
2022/01/15 09:37:06;;;;;;;0.00;0.00;;;;;;;7.12;66.99;99578.13;5106472;28;20054;-80
2022/01/15 09:39:32;;;;;;;0.00;0.00;;;;;;;7.12;66.84;99576.25;5102925;28;20055;-78
2022/01/15 09:41:58;;;;;;;0.00;0.00;;;;;;;7.13;67.13;99577.03;5093923;28;20032;-78
2022/01/15 09:44:25;;;;;;;0.00;0.00;;;;;;;7.20;66.67;99573.22;5092856;28;20111;-79
2022/01/15 09:46:52;;;;;;;0.25;0.25;;;;;;;7.18;67.11;99572.63;5092612;28;20472;-79
2022/01/15 09:49:20;;;;;;;0.00;0.00;;;;;;;7.24;67.04;99586.00;5092774;28;20061;-79
2022/01/15 09:51:46;;;;;;;0.00;0.00;;;;;;;7.25;66.78;99577.00;5092322;28;20560;-79
2022/01/15 09:54:17;;;;;;;0.05;0.05;;;;;;;7.28;67.15;99574.66;5092979;28;20115;-78
2022/01/15 09:56:43;;;;;;;0.00;0.00;;;;;;;7.30;67.14;99579.72;5092500;28;20028;-79
2022/01/15 09:59:10;;;;;;;0.57;0.57;;;;;;;7.31;66.80;99562.72;5092635;28;20027;-78
2022/01/15 10:01:35;;;;;;;0.00;0.00;;;;;;;7.33;66.71;99566.75;5092531;28;20073;-80
2022/01/15 10:04:01;;;;;;;0.00;0.00;;;;;;;7.37;66.30;99565.22;5092681;28;20024;-79
2022/01/15 10:06:27;;;;;;;0.00;0.00;;;;;;;7.36;65.85;99550.31;5092660;28;20028;-78
2022/01/15 10:09:05;;;;;;;0.00;0.00;;;;;;;7.47;66.20;99559.25;5092363;28;20144;-78
2022/01/15 10:11:41;;;;;;;;;;;;;;;7.52;65.99;99559.34;5092808;28;20024;-78
2022/01/15 10:14:32;;;;;;;0.00;0.00;;;;;;;7.52;66.11;99562.00;5093885;28;19911;-79
2022/01/15 10:17:00;;;;;;;0.00;0.00;;;;;;;7.56;65.76;99558.88;5092338;28;20032;-78
2022/01/15 10:19:34;;;;;;;0.00;0.00;;;;;;;7.61;65.47;99553.63;5092398;28;20078;-78
2022/01/15 10:22:20;;;;;;;0.00;0.00;;;;;;;7.66;65.87;99551.81;5092258;28;20044;-79
2022/01/15 10:24:51;;;;;;;0.00;0.00;;;;;;;7.66;65.25;99535.03;5092002;28;20035;-80
2022/01/15 10:27:30;;;;;;;0.35;0.35;;;;;;;7.72;65.83;99541.25;5102803;28;20028;-77
2022/01/15 10:30:10;;;;;;;0.30;0.30;;;;;;;7.72;65.74;99535.94;5092071;28;20482;-78
2022/01/15 10:32:38;;;;;;;0.15;0.15;;;;;;;7.73;65.91;99540.22;5100015;27;20112;-76
2022/01/15 10:35:15;;;;;;;0.00;0.00;;;;;;;7.81;65.53;99537.13;5112444;28;20030;-77
2022/01/15 10:37:50;;;;;;;0.00;0.00;;;;;;;7.84;64.73;99528.66;5115082;27;20031;-83
2022/01/15 10:40:16;;;;;;;0.10;0.10;;;;;;;7.91;64.80;99531.94;5110879;27;20515;-78
2022/01/15 10:42:49;;;;;;;0.00;0.00;;;;;;;7.88;63.91;99521.75;5108362;27;20027;-80
2022/01/15 10:45:16;;;;;;;0.05;0.05;;;;;;;7.97;63.77;99527.47;5114192;27;20039;-79
2022/01/15 10:47:48;;;;;;;0.00;0.00;;;;;;;8.00;62.97;99527.78;5111448;27;20043;-77
2022/01/15 10:50:21;;;;;;;0.00;0.00;;;;;;;8.04;63.30;99528.09;5107904;28;20409;-76
2022/01/15 10:52:47;;;;;;;0.00;0.00;;;;;;;8.00;62.77;99519.78;5107424;28;20039;-81
2022/01/15 10:55:15;;;;;;;0.00;0.00;;;;;;;8.05;63.04;99523.59;5109716;28;20084;-80
2022/01/15 10:57:53;;;;;;;0.15;0.15;;;;;;;8.09;62.54;99514.88;5111137;27;20056;-78
2022/01/15 11:00:37;;;;;;;0.00;0.00;;;;;;;8.18;62.30;99525.88;5112006;27;20395;-78
2022/01/15 11:03:22;;;;;;;0.10;0.10;;;;;;;8.19;62.65;99522.16;5106503;28;20097;-79
2022/01/15 11:05:49;;;;;;;0.00;0.00;;;;;;;8.14;63.32;99512.25;5091244;28;20032;-82
2022/01/15 11:08:16;;;;;;;0.00;0.00;;;;;;;8.12;63.29;99509.03;5101308;28;20032;-77
2022/01/15 11:10:57;;;;;;;0.00;0.00;;;;;;;8.15;62.89;99513.88;5091485;28;20024;-80
2022/01/15 11:13:25;;;;;;;0.00;0.00;;;;;;;8.17;62.97;99513.63;5091309;28;20051;-78
2022/01/15 11:15:56;;;;;;;0.00;0.00;;;;;;;8.10;62.90;99494.34;5099167;28;20044;-80
2022/01/15 11:18:28;;;;;;;0.00;0.00;;;;;;;8.23;63.31;99514.50;5103721;28;20384;-87
2022/01/15 11:20:58;;;;;;;0.00;0.00;;;;;;;8.31;63.64;99506.03;5094389;28;20028;-77
2022/01/15 11:23:26;;;;;;;0.10;0.10;;;;;;;8.34;63.39;99502.88;5090774;28;20031;-85
2022/01/15 11:25:54;;;;;;;0.00;0.00;;;;;;;8.38;63.10;99497.84;5090501;28;20036;-84
2022/01/15 11:28:22;;;;;;;0.05;0.05;;;;;;;8.43;63.37;99484.59;5090646;28;20081;-84
2022/01/15 11:30:48;;;;;;;;;;;;;;;8.58;63.26;99494.63;5091131;28;20020;-84
2022/01/15 11:33:20;;;;;;;0.00;0.00;;;;;;;8.61;63.60;99489.59;5090494;28;20409;-84
2022/01/15 11:35:46;;;;;;;0.03;0.03;;;;;;;8.69;63.19;99488.34;5089916;28;20119;-84
2022/01/15 11:38:47;;;;;;;0.00;0.00;;;;;;;8.75;62.22;99484.66;5091049;28;20119;-83
2022/01/15 11:41:27;;;;;;;0.22;0.22;;;;;;;8.84;62.35;99482.34;5105398;28;20032;-84
2022/01/15 11:43:58;;;;;;;0.17;0.17;;;;;;;8.85;61.64;99481.28;5110891;28;20077;-84
2022/01/15 11:46:30;;;;;;;0.00;0.00;;;;;;;8.87;61.41;99470.34;5102429;28;20081;-82
2022/01/15 11:49:31;;;;;;;0.00;0.00;;;;;;;8.95;60.81;99477.91;5110716;28;20059;-83
2022/01/15 11:52:06;;;;;;;0.00;0.00;;;;;;;8.96;60.62;99477.63;5110514;28;20043;-82
2022/01/15 11:54:32;;;;;;;0.30;0.30;;;;;;;8.88;60.08;99466.63;5107565;28;20093;-84
2022/01/15 11:57:00;;;;;;;0.03;0.03;;;;;;;8.95;59.70;99473.34;5110449;28;20032;-84
2022/01/15 11:59:25;;;;;;;0.00;0.00;;;;;;;9.01;59.19;99466.22;5110663;28;20063;-82
2022/01/15 12:02:04;;;;;;;0.30;0.30;;;;;;;9.03;58.59;99471.28;5110288;28;20571;-80
2022/01/15 12:04:38;;;;;;;0.28;0.28;;;;;;;9.03;58.88;99469.41;5110121;28;20051;-78
2022/01/15 12:07:06;;;;;;;0.00;0.00;;;;;;;9.01;58.88;99454.72;5107735;28;20054;-84
2022/01/15 12:09:40;;;;;;;0.35;0.35;;;;;;;9.07;58.70;99459.03;5093227;28;20124;-85